createdAt,value
2016-06-08T00:00:42.324Z,0
2016-06-08T00:01:42.312Z,0
2016-06-08T00:02:42.298Z,0
2016-06-08T00:03:42.269Z,0
2016-06-08T00:04:42.241Z,0
2016-06-08T00:05:42.228Z,0
2016-06-08T00:06:42.200Z,0
2016-06-08T00:07:42.186Z,0
2016-06-08T00:08:42.174Z,0
2016-06-08T00:09:42.161Z,0
2016-06-08T00:10:42.132Z,0
2016-06-08T00:11:42.494Z,0
2016-06-08T00:12:42.074Z,0
2016-06-08T00:13:42.077Z,0
2016-06-08T00:14:42.033Z,0
2016-06-08T00:15:42.021Z,0
2016-06-08T00:16:41.993Z,0
2016-06-08T00:17:41.979Z,0
2016-06-08T00:18:41.966Z,0
2016-06-08T00:19:41.937Z,0
2016-06-08T00:20:41.909Z,0
2016-06-08T00:21:41.896Z,0
2016-06-08T00:22:41.884Z,0
2016-06-08T00:23:41.854Z,0
2016-06-08T00:24:41.841Z,0
2016-06-08T00:25:41.813Z,0
2016-06-08T00:26:42.331Z,0
2016-06-08T00:27:41.772Z,0
2016-06-08T00:28:41.758Z,0
2016-06-08T00:29:41.745Z,0
2016-06-08T00:30:41.733Z,0
2016-06-08T00:31:41.689Z,0
2016-06-08T00:32:41.692Z,0
2016-06-08T00:33:41.663Z,0
2016-06-08T00:34:41.634Z,0
2016-06-08T00:35:41.621Z,0
2016-06-08T00:36:41.624Z,0
2016-06-08T00:37:41.580Z,0
2016-06-08T00:38:41.566Z,0
2016-06-08T00:39:41.539Z,0
2016-06-08T00:40:41.525Z,0
2016-06-08T00:41:42.935Z,0
2016-06-08T00:42:41.484Z,0
2016-06-08T00:43:41.471Z,0
2016-06-08T00:44:41.427Z,0
2016-06-08T00:45:41.429Z,0
2016-06-08T00:46:41.244Z,0
2016-06-08T00:47:41.388Z,0
2016-06-08T00:48:41.344Z,0
2016-06-08T00:49:41.331Z,0
2016-06-08T00:50:41.318Z,0
2016-06-08T00:51:41.289Z,0
2016-06-08T00:52:41.276Z,0
2016-06-08T00:53:41.248Z,0
2016-06-08T00:54:41.234Z,0
2016-06-08T00:55:41.207Z,0
2016-06-08T00:56:41.662Z,0
2016-06-08T00:57:41.181Z,0
2016-06-08T00:58:41.152Z,0
2016-06-08T00:59:41.123Z,0
2016-06-08T01:00:41.111Z,0
2016-06-08T01:01:41.097Z,0
2016-06-08T01:02:41.069Z,0
2016-06-08T01:03:41.040Z,0
2016-06-08T01:04:41.028Z,0
2016-06-08T01:05:41.014Z,0
2016-06-08T01:06:40.970Z,0
2016-06-08T01:07:40.957Z,0
2016-06-08T01:08:40.944Z,0
2016-06-08T01:09:40.635Z,0
2016-06-08T01:10:40.605Z,0
2016-06-08T01:11:40.906Z,0
2016-06-08T01:12:40.861Z,0
2016-06-08T01:13:40.849Z,0
2016-06-08T01:14:40.820Z,0
2016-06-08T01:15:40.807Z,0
2016-06-08T01:16:40.654Z,0
2016-06-08T01:17:40.765Z,0
2016-06-08T01:18:40.737Z,0
2016-06-08T01:19:40.708Z,0
2016-06-08T01:20:40.696Z,0
2016-06-08T01:21:40.542Z,0
2016-06-08T01:22:40.654Z,0
2016-06-08T01:23:40.626Z,0
2016-06-08T01:24:40.612Z,0
2016-06-08T01:25:40.599Z,0
2016-06-08T01:26:40.414Z,0
2016-06-08T01:27:40.574Z,0
2016-06-08T01:28:40.545Z,0
2016-06-08T01:29:40.360Z,0
2016-06-08T01:30:40.504Z,0
2016-06-08T01:31:40.490Z,0
2016-06-08T01:32:40.447Z,0
2016-06-08T01:33:40.449Z,0
2016-06-08T01:34:40.420Z,0
2016-06-08T01:35:40.392Z,0
2016-06-08T01:36:40.395Z,0
2016-06-08T01:37:40.350Z,0
2016-06-08T01:38:40.353Z,0
2016-06-08T01:39:40.308Z,0
2016-06-08T01:40:40.296Z,0
2016-06-08T01:41:40.830Z,0
2016-06-08T01:42:40.754Z,0
2016-06-08T01:43:40.227Z,0
2016-06-08T01:44:40.229Z,0
2016-06-08T01:45:40.185Z,0
2016-06-08T01:46:40.156Z,0
2016-06-08T01:47:40.143Z,0
2016-06-08T01:48:40.130Z,0
2016-06-08T01:49:40.117Z,0
2016-06-08T01:50:40.088Z,0
2016-06-08T01:51:40.060Z,0
2016-06-08T01:52:40.047Z,0
2016-06-08T01:53:40.034Z,0
2016-06-08T01:54:40.006Z,0
2016-06-08T01:55:39.976Z,0
2016-06-08T01:56:40.417Z,0
2016-06-08T01:57:39.951Z,0
2016-06-08T01:58:39.923Z,0
2016-06-08T01:59:39.895Z,0
2016-06-08T02:00:39.725Z,0
2016-06-08T02:01:39.868Z,0
2016-06-08T02:02:39.840Z,0
2016-06-08T02:03:39.826Z,0
2016-06-08T02:04:39.798Z,0
2016-06-08T02:05:39.769Z,0
2016-06-08T02:06:39.756Z,0
2016-06-08T02:07:39.744Z,0
2016-06-08T02:08:39.731Z,0
2016-06-08T02:09:39.702Z,0
2016-06-08T02:10:39.674Z,0
2016-06-08T02:11:39.504Z,0
2016-06-08T02:12:40.305Z,0
2016-06-08T02:13:39.619Z,0
2016-06-08T02:14:39.591Z,0
2016-06-08T02:15:39.563Z,0
2016-06-08T02:16:39.393Z,0
2016-06-08T02:17:39.536Z,4
2016-06-08T02:18:39.508Z,4
2016-06-08T02:19:39.510Z,4
2016-06-08T02:20:39.466Z,0
2016-06-08T02:21:39.281Z,0
2016-06-08T02:22:39.440Z,0
2016-06-08T02:23:39.412Z,0
2016-06-08T02:24:39.383Z,4
2016-06-08T02:25:39.354Z,4
2016-06-08T02:26:39.467Z,4
2016-06-08T02:27:39.484Z,0
2016-06-08T02:28:39.284Z,4
2016-06-08T02:29:39.271Z,4
2016-06-08T02:30:39.242Z,4
2016-06-08T02:31:39.231Z,4
2016-06-08T02:32:39.217Z,8
2016-06-08T02:33:39.189Z,8
2016-06-08T02:34:39.160Z,4
2016-06-08T02:35:39.147Z,8
2016-06-08T02:36:38.994Z,8
2016-06-08T02:37:39.122Z,8
2016-06-08T02:38:39.092Z,12
2016-06-08T02:39:39.080Z,12
2016-06-08T02:40:39.051Z,16
2016-06-08T02:41:39.772Z,20
2016-06-08T02:42:40.275Z,20
2016-06-08T02:43:38.996Z,24
2016-06-08T02:44:38.968Z,28
2016-06-08T02:45:38.940Z,28
2016-06-08T02:46:38.926Z,36
2016-06-08T02:47:38.914Z,40
2016-06-08T02:48:38.869Z,44
2016-06-08T02:49:38.732Z,48
2016-06-08T02:50:38.844Z,56
2016-06-08T02:51:38.659Z,68
2016-06-08T02:52:38.787Z,72
2016-06-08T02:53:38.758Z,84
2016-06-08T02:54:38.745Z,96
2016-06-08T02:55:38.748Z,108
2016-06-08T02:56:39.407Z,116
2016-06-08T02:57:39.003Z,128
2016-06-08T02:58:38.678Z,140
2016-06-08T02:59:38.492Z,156
2016-06-08T03:00:38.636Z,172
2016-06-08T03:01:38.608Z,184
2016-06-08T03:02:38.578Z,200
2016-06-08T03:03:38.551Z,216
2016-06-08T03:04:38.537Z,236
2016-06-08T03:05:38.509Z,256
2016-06-08T03:06:38.496Z,276
2016-06-08T03:07:38.483Z,296
2016-06-08T03:08:38.486Z,316
2016-06-08T03:09:38.426Z,340
2016-06-08T03:10:38.413Z,364
2016-06-08T03:11:38.400Z,384
2016-06-08T03:12:38.387Z,408
2016-06-08T03:13:38.358Z,436
2016-06-08T03:14:38.330Z,464
2016-06-08T03:15:38.316Z,492
2016-06-08T03:16:38.288Z,524
2016-06-08T03:17:38.261Z,556
2016-06-08T03:18:38.232Z,588
2016-06-08T03:19:38.235Z,628
2016-06-08T03:20:38.205Z,664
2016-06-08T03:21:38.177Z,708
2016-06-08T03:22:38.148Z,748
2016-06-08T03:23:38.151Z,792
2016-06-08T03:24:38.138Z,844
2016-06-08T03:25:38.094Z,896
2016-06-08T03:26:38.097Z,952
2016-06-08T03:27:39.099Z,1012
2016-06-08T03:28:38.040Z,1076
2016-06-08T03:29:38.011Z,1140
2016-06-08T03:30:37.998Z,1212
2016-06-08T03:31:37.984Z,1284
2016-06-08T03:32:37.940Z,1360
2016-06-08T03:33:37.929Z,1444
2016-06-08T03:34:37.900Z,1532
2016-06-08T03:35:37.887Z,1620
2016-06-08T03:36:37.873Z,1716
2016-06-08T03:37:37.845Z,1808
2016-06-08T03:38:37.832Z,1904
2016-06-08T03:39:37.819Z,2000
2016-06-08T03:40:37.791Z,2100
2016-06-08T03:41:37.762Z,2200
2016-06-08T03:42:38.718Z,2300
2016-06-08T03:43:37.720Z,2400
2016-06-08T03:44:37.692Z,2504
2016-06-08T03:45:37.680Z,2604
2016-06-08T03:46:37.650Z,2704
2016-06-08T03:47:37.637Z,2816
2016-06-08T03:48:37.609Z,2920
2016-06-08T03:49:37.580Z,3060
2016-06-08T03:50:37.583Z,3316
2016-06-08T03:51:37.554Z,3520
2016-06-08T03:52:37.526Z,3456
2016-06-08T03:53:37.513Z,3480
2016-06-08T03:54:37.485Z,3564
2016-06-08T03:55:37.456Z,3656
2016-06-08T03:56:37.443Z,3740
2016-06-08T03:57:37.117Z,3828
2016-06-08T03:58:37.402Z,3944
2016-06-08T03:59:37.374Z,4076
2016-06-08T04:00:37.360Z,4152
2016-06-08T04:01:37.347Z,4236
2016-06-08T04:02:37.318Z,4320
2016-06-08T04:03:37.290Z,4432
2016-06-08T04:04:37.276Z,4668
2016-06-08T04:05:37.264Z,4716
2016-06-08T04:06:37.251Z,4744
2016-06-08T04:07:37.207Z,4792
2016-06-08T04:08:37.194Z,4896
2016-06-08T04:09:37.165Z,4992
2016-06-08T04:10:37.153Z,5048
2016-06-08T04:11:37.124Z,5136
2016-06-08T04:12:37.658Z,5256
2016-06-08T04:13:37.097Z,5388
2016-06-08T04:14:37.070Z,5432
2016-06-08T04:15:36.886Z,5464
2016-06-08T04:16:37.013Z,5524
2016-06-08T04:17:36.999Z,5632
2016-06-08T04:18:36.986Z,5720
2016-06-08T04:19:36.958Z,5832
2016-06-08T04:20:36.944Z,5908
2016-06-08T04:21:36.916Z,5996
2016-06-08T04:22:36.904Z,6080
2016-06-08T04:23:36.875Z,6156
2016-06-08T04:24:36.862Z,6240
2016-06-08T04:25:36.833Z,6356
2016-06-08T04:26:36.836Z,6412
2016-06-08T04:27:36.526Z,6464
2016-06-08T04:28:36.795Z,6556
2016-06-08T04:29:36.781Z,6656
2016-06-08T04:30:36.769Z,6736
2016-06-08T04:31:36.741Z,6824
2016-06-08T04:32:36.696Z,6884
2016-06-08T04:33:36.684Z,6968
2016-06-08T04:34:36.654Z,7064
2016-06-08T04:35:36.642Z,7160
2016-06-08T04:36:36.628Z,7232
2016-06-08T04:37:36.615Z,7384
2016-06-08T04:38:36.587Z,7512
2016-06-08T04:39:36.559Z,7616
2016-06-08T04:40:36.530Z,7704
2016-06-08T04:41:36.548Z,7804
2016-06-08T04:42:36.879Z,7948
2016-06-08T04:43:36.491Z,8080
2016-06-08T04:44:36.322Z,8184
2016-06-08T04:45:36.449Z,8300
2016-06-08T04:46:36.422Z,8420
2016-06-08T04:47:36.409Z,8564
2016-06-08T04:48:36.395Z,8744
2016-06-08T04:49:36.351Z,8872
2016-06-08T04:50:36.354Z,9084
2016-06-08T04:51:36.341Z,9292
2016-06-08T04:52:36.296Z,9520
2016-06-08T04:53:36.284Z,9780
2016-06-08T04:54:36.271Z,10216
2016-06-08T04:55:36.243Z,11016
2016-06-08T04:56:36.213Z,13324
2016-06-08T04:57:36.216Z,17792
2016-06-08T04:58:37.032Z,21280
2016-06-08T04:59:36.174Z,22368
2016-06-08T05:00:36.146Z,23008
2016-06-08T05:01:36.148Z,22720
2016-06-08T05:02:36.136Z,18400
2016-06-08T05:03:36.108Z,16920
2016-06-08T05:04:36.079Z,19360
2016-06-08T05:05:36.051Z,19456
2016-06-08T05:06:36.025Z,16652
2016-06-08T05:07:36.038Z,15284
2016-06-08T05:08:36.020Z,13940
2016-06-08T05:09:36.017Z,12504
2016-06-08T05:10:35.859Z,12776
2016-06-08T05:11:35.994Z,12572
2016-06-08T05:12:36.704Z,13060
2016-06-08T05:13:35.819Z,14036
2016-06-08T05:14:35.951Z,14172
2016-06-08T05:15:35.926Z,13216
2016-06-08T05:16:35.932Z,14636
2016-06-08T05:17:35.920Z,18368
2016-06-08T05:18:35.893Z,18592
2016-06-08T05:19:35.866Z,17720
2016-06-08T05:20:35.854Z,19328
2016-06-08T05:21:35.843Z,20672
2016-06-08T05:22:35.813Z,19328
2016-06-08T05:23:35.802Z,15612
2016-06-08T05:24:35.789Z,13232
2016-06-08T05:25:35.761Z,12668
2016-06-08T05:26:35.592Z,12468
2016-06-08T05:27:36.048Z,12444
2016-06-08T05:28:35.723Z,12460
2016-06-08T05:29:35.695Z,12544
2016-06-08T05:30:35.667Z,12696
2016-06-08T05:31:35.670Z,12900
2016-06-08T05:32:35.657Z,13180
2016-06-08T05:33:35.629Z,13432
2016-06-08T05:34:35.615Z,13608
2016-06-08T05:35:35.587Z,13804
2016-06-08T05:36:35.573Z,14004
2016-06-08T05:37:35.562Z,14208
2016-06-08T05:38:35.532Z,14404
2016-06-08T05:39:35.519Z,14692
2016-06-08T05:40:35.491Z,15044
2016-06-08T05:41:35.478Z,15356
2016-06-08T05:42:36.715Z,15608
2016-06-08T05:43:35.295Z,15996
2016-06-08T05:44:35.423Z,16344
2016-06-08T05:45:35.411Z,16752
2016-06-08T05:46:35.382Z,17212
2016-06-08T05:47:35.213Z,18752
2016-06-08T05:48:35.356Z,21408
2016-06-08T05:49:35.781Z,23840
2016-06-08T05:50:35.330Z,25792
2016-06-08T05:51:35.302Z,27712
2016-06-08T05:52:35.117Z,28960
2016-06-08T05:53:35.260Z,29536
2016-06-08T05:54:35.247Z,30592
2016-06-08T05:55:35.093Z,31520
2016-06-08T05:56:35.238Z,32480
2016-06-08T05:57:35.083Z,31872
2016-06-08T05:58:35.196Z,29312
2016-06-08T05:59:35.166Z,30272
2016-06-08T06:00:35.154Z,33408
2016-06-08T06:01:35.126Z,33856
2016-06-08T06:02:35.112Z,33152
2016-06-08T06:03:35.099Z,33952
2016-06-08T06:04:35.086Z,35616
2016-06-08T06:05:35.074Z,35648
2016-06-08T06:06:34.905Z,37792
2016-06-08T06:07:35.032Z,35616
2016-06-08T06:08:34.878Z,36320
2016-06-08T06:09:35.006Z,34016
2016-06-08T06:10:34.993Z,33664
2016-06-08T06:11:34.980Z,32864
2016-06-08T06:12:34.951Z,32800
2016-06-08T06:13:34.954Z,33984
2016-06-08T06:14:34.926Z,33984
2016-06-08T06:15:34.929Z,34112
2016-06-08T06:16:34.759Z,36512
2016-06-08T06:17:34.715Z,34784
2016-06-08T06:18:34.874Z,34624
2016-06-08T06:19:34.861Z,35072
2016-06-08T06:20:34.692Z,34720
2016-06-08T06:21:34.819Z,34112
2016-06-08T06:22:34.822Z,34112
2016-06-08T06:23:34.653Z,29984
2016-06-08T06:24:34.781Z,33504
2016-06-08T06:25:34.768Z,31200
2016-06-08T06:26:34.755Z,26912
2016-06-08T06:27:34.742Z,27872
2016-06-08T06:28:34.744Z,29056
2016-06-08T06:29:34.732Z,31968
2016-06-08T06:30:34.703Z,31456
2016-06-08T06:31:34.690Z,30432
2016-06-08T06:32:34.694Z,30432
2016-06-08T06:33:34.524Z,30880
2016-06-08T06:34:34.682Z,31392
2016-06-08T06:35:34.483Z,31872
2016-06-08T06:36:34.610Z,31808
2016-06-08T06:37:34.598Z,31232
2016-06-08T06:38:34.584Z,32128
2016-06-08T06:39:34.603Z,32000
2016-06-08T06:40:34.574Z,30976
2016-06-08T06:41:34.545Z,32000
2016-06-08T06:42:34.532Z,28064
2016-06-08T06:43:34.879Z,27744
2016-06-08T06:44:34.507Z,29088
2016-06-08T06:45:34.509Z,31840
2016-06-08T06:46:34.481Z,34240
2016-06-08T06:47:34.468Z,38176
2016-06-08T06:48:34.470Z,43968
2016-06-08T06:49:34.286Z,43456
2016-06-08T06:50:34.444Z,48000
2016-06-08T06:51:34.416Z,48768
2016-06-08T06:52:34.419Z,37600
2016-06-08T06:53:34.406Z,38752
2016-06-08T06:54:34.378Z,43584
2016-06-08T06:55:34.364Z,52864
2016-06-08T06:56:34.352Z,52256
2016-06-08T06:57:34.338Z,45920
2016-06-08T06:58:35.091Z,38912
2016-06-08T06:59:34.328Z,40608
2016-06-08T07:00:34.299Z,46272
2016-06-08T07:01:34.287Z,61408
2016-06-08T07:02:34.274Z,59136
2016-06-08T07:03:34.261Z,54432
2016-06-08T07:04:34.249Z,44576
2016-06-08T07:05:34.234Z,40000
2016-06-08T07:06:34.238Z,46368
2016-06-08T07:07:34.085Z,39136
2016-06-08T07:08:34.196Z,39104
2016-06-08T07:09:34.215Z,37440
2016-06-08T07:10:34.186Z,38912
2016-06-08T07:11:34.173Z,39680
2016-06-08T07:12:34.160Z,39072
2016-06-08T07:13:34.022Z,42272
2016-06-08T07:14:33.978Z,41184
2016-06-08T07:15:34.152Z,35808
2016-06-08T07:16:34.123Z,37728
2016-06-08T07:17:34.112Z,35392
2016-06-08T07:18:34.083Z,37824
2016-06-08T07:19:34.075Z,40736
2016-06-08T07:20:34.060Z,43744
2016-06-08T07:21:34.065Z,45504
2016-06-08T07:22:34.051Z,56992
2016-06-08T07:23:34.026Z,55648
2016-06-08T07:24:33.998Z,44896
2016-06-08T07:25:34.015Z,40832
2016-06-08T07:26:34.003Z,38528
2016-06-08T07:27:33.834Z,40704
2016-06-08T07:28:33.868Z,37184
2016-06-08T07:29:33.980Z,38336
2016-06-08T07:30:33.951Z,43296
2016-06-08T07:31:33.938Z,44960
2016-06-08T07:32:33.941Z,41568
2016-06-08T07:33:33.928Z,40960
2016-06-08T07:34:33.931Z,40320
2016-06-08T07:35:33.892Z,38784
2016-06-08T07:36:33.895Z,45408
2016-06-08T07:37:33.883Z,48224
2016-06-08T07:38:33.854Z,47936
2016-06-08T07:39:33.856Z,51808
2016-06-08T07:40:33.859Z,51264
2016-06-08T07:41:33.852Z,53248
2016-06-08T07:42:33.822Z,56032
2016-06-08T07:43:33.825Z,56384
2016-06-08T07:44:33.656Z,58336
2016-06-08T07:45:33.643Z,56224
2016-06-08T07:46:33.786Z,54656
2016-06-08T07:47:33.773Z,56224
2016-06-08T07:48:33.604Z,59456
2016-06-08T07:49:33.748Z,61312
2016-06-08T07:50:33.735Z,64832
2016-06-08T07:51:33.732Z,69600
2016-06-08T07:52:33.719Z,68064
2016-06-08T07:53:33.738Z,63360
2016-06-08T07:54:33.724Z,58592
2016-06-08T07:55:33.696Z,52032
2016-06-08T07:56:33.545Z,50144
2016-06-08T07:57:33.687Z,52928
2016-06-08T07:58:33.534Z,53760
2016-06-08T07:59:33.662Z,57408
2016-06-08T08:00:33.649Z,57408
2016-06-08T08:01:33.652Z,59168
2016-06-08T08:02:33.639Z,58944
2016-06-08T08:03:33.642Z,60800
2016-06-08T08:04:33.628Z,64544
2016-06-08T08:05:33.616Z,69408
2016-06-08T08:06:33.650Z,72576
2016-06-08T08:07:33.622Z,62720
2016-06-08T08:08:33.593Z,65408
2016-06-08T08:09:33.580Z,67328
2016-06-08T08:10:33.583Z,63520
2016-06-08T08:11:33.603Z,78560
2016-06-08T08:12:33.575Z,84832
2016-06-08T08:13:34.578Z,86304
2016-06-08T08:14:33.932Z,85472
2016-06-08T08:15:33.372Z,85952
2016-06-08T08:16:33.546Z,84448
2016-06-08T08:17:33.518Z,76768
2016-06-08T08:18:33.552Z,71840
2016-06-08T08:19:33.524Z,69536
2016-06-08T08:20:33.526Z,70816
2016-06-08T08:21:34.060Z,61568
2016-06-08T08:22:33.500Z,52416
2016-06-08T08:23:33.504Z,41152
2016-06-08T08:24:33.507Z,44000
2016-06-08T08:25:33.476Z,51744
2016-06-08T08:26:33.480Z,54976
2016-06-08T08:27:33.310Z,51840
2016-06-08T08:28:34.188Z,47360
2016-06-08T08:29:33.879Z,44032
2016-06-08T08:30:38.037Z,49920
2016-06-08T08:31:33.446Z,50688
2016-06-08T08:32:38.839Z,62240
2016-06-08T08:33:39.248Z,58080
2016-06-08T08:34:37.236Z,70304
2016-06-08T08:35:38.144Z,75264
2016-06-08T08:36:38.631Z,74816
2016-06-08T08:37:38.791Z,74240
2016-06-08T08:38:36.590Z,67616
2016-06-08T08:39:37.578Z,67072
2016-06-08T08:40:38.439Z,72544
2016-06-08T08:41:38.723Z,74944
2016-06-08T08:42:37.133Z,65888
2016-06-08T08:43:33.964Z,55968
2016-06-08T08:44:33.481Z,51680
2016-06-08T08:45:33.344Z,51968
2016-06-08T08:46:33.330Z,55104
2016-06-08T08:47:33.333Z,50112
2016-06-08T08:48:36.491Z,44448
2016-06-08T08:49:38.776Z,34208
2016-06-08T08:50:38.107Z,35872
2016-06-08T08:51:38.296Z,38048
2016-06-08T08:52:38.502Z,46560
2016-06-08T08:53:33.287Z,59296
2016-06-08T08:54:33.132Z,62688
2016-06-08T08:55:33.276Z,58720
2016-06-08T08:56:33.263Z,60672
2016-06-08T08:57:33.266Z,69024
2016-06-08T08:58:33.973Z,69632
2016-06-08T08:59:33.257Z,60992
2016-06-08T09:00:33.227Z,55136
2016-06-08T09:01:33.231Z,34496
2016-06-08T09:02:33.218Z,27968
2016-06-08T09:03:33.204Z,26976
2016-06-08T09:04:33.192Z,26016
2016-06-08T09:05:33.194Z,25920
2016-06-08T09:06:33.181Z,26112
2016-06-08T09:07:33.012Z,25504
2016-06-08T09:08:33.155Z,24704
2016-06-08T09:09:33.158Z,25216
2016-06-08T09:10:33.130Z,25376
2016-06-08T09:11:33.413Z,25376
2016-06-08T09:12:33.135Z,24576
2016-06-08T09:13:34.638Z,24288
2016-06-08T09:14:33.531Z,23584
2016-06-08T09:15:33.127Z,23168
2016-06-08T09:16:33.083Z,23104
2016-06-08T09:17:33.102Z,22816
2016-06-08T09:18:33.072Z,23040
2016-06-08T09:19:33.075Z,23264
2016-06-08T09:20:32.907Z,23808
2016-06-08T09:21:33.035Z,24320
2016-06-08T09:22:33.052Z,24448
2016-06-08T09:23:33.024Z,24800
2016-06-08T09:24:32.854Z,24864
2016-06-08T09:25:32.982Z,25120
2016-06-08T09:26:32.829Z,25056
2016-06-08T09:27:32.957Z,24832
2016-06-08T09:28:32.818Z,24704
2016-06-08T09:29:33.726Z,24576
2016-06-08T09:30:32.949Z,24320
2016-06-08T09:31:32.920Z,24320
2016-06-08T09:32:32.907Z,23968
2016-06-08T09:33:32.894Z,23456
2016-06-08T09:34:32.897Z,23296
2016-06-08T09:35:32.868Z,22784
2016-06-08T09:36:32.699Z,22208
2016-06-08T09:37:37.780Z,21536
2016-06-08T09:38:32.845Z,21184
2016-06-08T09:39:38.754Z,20864
2016-06-08T09:40:38.101Z,20736
2016-06-08T09:41:38.009Z,20704
2016-06-08T09:42:38.434Z,20384
2016-06-08T09:43:38.094Z,20256
2016-06-08T09:44:38.597Z,20160
2016-06-08T09:45:37.692Z,20128
2016-06-08T09:46:32.742Z,20288
2016-06-08T09:47:32.744Z,20576
2016-06-08T09:48:32.716Z,20320
2016-06-08T09:49:32.703Z,19904
2016-06-08T09:50:32.690Z,19744
2016-06-08T09:51:32.677Z,19712
2016-06-08T09:52:32.663Z,20032
2016-06-08T09:53:32.652Z,19872
2016-06-08T09:54:32.654Z,19680
2016-06-08T09:55:32.626Z,19552
2016-06-08T09:56:32.596Z,19424
2016-06-08T09:57:32.584Z,19488
2016-06-08T09:58:32.587Z,19040
2016-06-08T09:59:32.557Z,18448
2016-06-08T10:00:32.560Z,18024
2016-06-08T10:01:32.548Z,17912
2016-06-08T10:02:32.535Z,17920
2016-06-08T10:03:32.522Z,17692
2016-06-08T10:04:32.509Z,17400
2016-06-08T10:05:32.496Z,17344
2016-06-08T10:06:32.484Z,17236
2016-06-08T10:07:32.471Z,17024
2016-06-08T10:08:32.441Z,16764
2016-06-08T10:09:32.429Z,16812
2016-06-08T10:10:32.431Z,16996
2016-06-08T10:11:32.419Z,17024
2016-06-08T10:12:32.390Z,16948
2016-06-08T10:13:33.205Z,16664
2016-06-08T10:14:33.348Z,16812
2016-06-08T10:15:32.351Z,16456
2016-06-08T10:16:32.323Z,16292
2016-06-08T10:17:32.325Z,16084
2016-06-08T10:18:32.155Z,16124
2016-06-08T10:19:32.299Z,16744
2016-06-08T10:20:32.302Z,16788
2016-06-08T10:21:32.099Z,16936
2016-06-08T10:22:32.117Z,17192
2016-06-08T10:23:32.747Z,17260
2016-06-08T10:24:32.216Z,17392
2016-06-08T10:25:32.203Z,17684
2016-06-08T10:26:32.459Z,17780
2016-06-08T10:27:32.177Z,17912
2016-06-08T10:28:32.196Z,17884
2016-06-08T10:29:32.011Z,17764
2016-06-08T10:30:32.138Z,17548
2016-06-08T10:31:32.110Z,17568
2016-06-08T10:32:32.112Z,17376
2016-06-08T10:33:32.101Z,17344
2016-06-08T10:34:32.071Z,17408
2016-06-08T10:35:32.074Z,17080
2016-06-08T10:36:32.061Z,16924
2016-06-08T10:37:32.048Z,16856
2016-06-08T10:38:32.035Z,16632
2016-06-08T10:39:32.023Z,16592
2016-06-08T10:40:32.119Z,16376
2016-06-08T10:41:31.981Z,16320
2016-06-08T10:42:31.968Z,16188
2016-06-08T10:43:31.970Z,16176
2016-06-08T10:44:31.942Z,16208
2016-06-08T10:45:31.929Z,16240
2016-06-08T10:46:31.931Z,16316
2016-06-08T10:47:31.903Z,16368
2016-06-08T10:48:31.890Z,16544
2016-06-08T10:49:31.877Z,16728
2016-06-08T10:50:31.864Z,16884
2016-06-08T10:51:32.508Z,17100
2016-06-08T10:52:31.838Z,17340
2016-06-08T10:53:31.825Z,17344
2016-06-08T10:54:33.581Z,17528
2016-06-08T10:55:31.785Z,17696
2016-06-08T10:56:31.787Z,17816
2016-06-08T10:57:31.773Z,17904
2016-06-08T10:58:31.745Z,17912
2016-06-08T10:59:31.779Z,17836
2016-06-08T11:00:32.688Z,17852
2016-06-08T11:01:31.785Z,17840
2016-06-08T11:02:31.835Z,17892
2016-06-08T11:03:31.524Z,17928
2016-06-08T11:04:31.496Z,17884
2016-06-08T11:05:31.670Z,17800
2016-06-08T11:06:31.657Z,17820
2016-06-08T11:07:31.629Z,17868
2016-06-08T11:08:31.601Z,17776
2016-06-08T11:09:31.587Z,17712
2016-06-08T11:10:31.575Z,17604
2016-06-08T11:11:31.561Z,17516
2016-06-08T11:12:31.548Z,17520
2016-06-08T11:13:31.536Z,17404
2016-06-08T11:14:31.366Z,17308
2016-06-08T11:15:31.884Z,17292
2016-06-08T11:16:31.512Z,17372
2016-06-08T11:17:31.483Z,17348
2016-06-08T11:18:31.455Z,17292
2016-06-08T11:19:31.442Z,17184
2016-06-08T11:20:31.444Z,17056
2016-06-08T11:21:31.433Z,16972
2016-06-08T11:22:31.404Z,16940
2016-06-08T11:23:31.234Z,16844
2016-06-08T11:24:31.394Z,16732
2016-06-08T11:25:31.365Z,16796
2016-06-08T11:26:31.352Z,16784
2016-06-08T11:27:31.355Z,16764
2016-06-08T11:28:31.326Z,16684
2016-06-08T11:29:31.219Z,16508
2016-06-08T11:30:31.129Z,16560
2016-06-08T11:31:31.287Z,16476
2016-06-08T11:32:31.274Z,16432
2016-06-08T11:33:31.246Z,16380
2016-06-08T11:34:31.076Z,16296
2016-06-08T11:35:31.220Z,16196
2016-06-08T11:36:31.207Z,16164
2016-06-08T11:37:31.193Z,16132
2016-06-08T11:38:31.181Z,16016
2016-06-08T11:39:31.011Z,15936
2016-06-08T11:40:31.155Z,15728
2016-06-08T11:41:31.159Z,15668
2016-06-08T11:42:31.161Z,15524
2016-06-08T11:43:31.117Z,15428
2016-06-08T11:44:30.962Z,15272
2016-06-08T11:45:31.106Z,15048
2016-06-08T11:46:30.750Z,14884
2016-06-08T11:47:31.034Z,14924
2016-06-08T11:48:31.036Z,14764
2016-06-08T11:49:31.023Z,14600
2016-06-08T11:50:31.541Z,14432
2016-06-08T11:51:31.013Z,14268
2016-06-08T11:52:31.000Z,14104
2016-06-08T11:53:30.705Z,13956
2016-06-08T11:54:30.818Z,13756
2016-06-08T11:55:30.789Z,13532
2016-06-08T11:56:30.916Z,13220
2016-06-08T11:57:30.795Z,12908
2016-06-08T11:58:31.219Z,12596
2016-06-08T11:59:31.112Z,12384
2016-06-08T12:00:37.415Z,12188
2016-06-08T12:01:30.946Z,11980
2016-06-08T12:02:30.682Z,11872
2016-06-08T12:03:30.843Z,11680
2016-06-08T12:04:30.813Z,11436
2016-06-08T12:05:30.472Z,11192
2016-06-08T12:06:41.915Z,10884
2016-06-08T12:07:30.603Z,10716
2016-06-08T12:08:30.731Z,10512
2016-06-08T12:09:35.171Z,10204
2016-06-08T12:10:30.720Z,10048
2016-06-08T12:11:30.692Z,9764
2016-06-08T12:12:31.288Z,9612
2016-06-08T12:13:30.525Z,9504
2016-06-08T12:14:30.497Z,9464
2016-06-08T12:15:30.484Z,9392
2016-06-08T12:16:30.611Z,9268
2016-06-08T12:17:30.301Z,9184
2016-06-08T12:18:30.429Z,9044
2016-06-08T12:19:30.416Z,8960
2016-06-08T12:20:30.559Z,8976
2016-06-08T12:21:30.546Z,9024
2016-06-08T12:22:30.377Z,9084
2016-06-08T12:23:30.349Z,9100
2016-06-08T12:24:30.195Z,8968
2016-06-08T12:25:30.479Z,8904
2016-06-08T12:26:30.310Z,8828
2016-06-08T12:27:30.453Z,8792
2016-06-08T12:28:30.441Z,8924
2016-06-08T12:29:30.803Z,8964
2016-06-08T12:30:31.086Z,9040
2016-06-08T12:31:30.385Z,9064
2016-06-08T12:32:30.358Z,9092
2016-06-08T12:33:30.360Z,9000
2016-06-08T12:34:30.347Z,8928
2016-06-08T12:35:30.318Z,8756
2016-06-08T12:36:30.306Z,8608
2016-06-08T12:37:30.309Z,8448
2016-06-08T12:38:30.264Z,8308
2016-06-08T12:39:30.282Z,8120
2016-06-08T12:40:30.238Z,7856
2016-06-08T12:41:30.225Z,7760
2016-06-08T12:42:30.212Z,7692
2016-06-08T12:43:30.043Z,7484
2016-06-08T12:44:30.781Z,7440
2016-06-08T12:45:30.361Z,7344
2016-06-08T12:46:30.161Z,7232
2016-06-08T12:47:30.132Z,7192
2016-06-08T12:48:30.103Z,7196
2016-06-08T12:49:30.106Z,7116
2016-06-08T12:50:30.109Z,7000
2016-06-08T12:51:30.064Z,6936
2016-06-08T12:52:30.052Z,6864
2016-06-08T12:53:29.883Z,6776
2016-06-08T12:54:30.010Z,6716
2016-06-08T12:55:30.013Z,6668
2016-06-08T12:56:30.016Z,6568
2016-06-08T12:57:29.987Z,6472
2016-06-08T12:58:29.944Z,6404
2016-06-08T12:59:30.539Z,6384
2016-06-08T13:00:29.933Z,6300
2016-06-08T13:01:29.920Z,6224
2016-06-08T13:02:29.891Z,6176
2016-06-08T13:03:29.879Z,6128
2016-06-08T13:04:29.881Z,6080
2016-06-08T13:05:29.852Z,6068
2016-06-08T13:06:29.840Z,6100
2016-06-08T13:07:29.826Z,6064
2016-06-08T13:08:29.829Z,5960
2016-06-08T13:09:29.784Z,5824
2016-06-08T13:10:29.787Z,5728
2016-06-08T13:11:29.776Z,5628
2016-06-08T13:12:29.746Z,5612
2016-06-08T13:13:29.717Z,5524
2016-06-08T13:14:31.204Z,5400
2016-06-08T13:15:30.286Z,5232
2016-06-08T13:16:29.695Z,5280
2016-06-08T13:17:29.666Z,5308
2016-06-08T13:18:29.637Z,5164
2016-06-08T13:19:29.624Z,5136
2016-06-08T13:20:29.611Z,5260
2016-06-08T13:21:29.599Z,5280